Wednesday, February 10, 2016
02:50 UTC
  |  Log In   |  Register Free
Airport Search:

Lincoln Airport
(KLNK)

FAA data valid effective Dec 10 2015 - Feb 4 2016 (unless otherwise noted).

 
 
 
 
 
 
 
 
 
 
 
 
 
 
Current Aviation Weather for KLNK

Weather Summary


The most recent METAR observation for LNK was updated at: 12:54 UTC
METAR for KLNK is not available. Closest METAR is for KAHQ
KLNK  (most recent observation was updatred at 10:01 UTC)
100154Z 28005KT 10SM CLR M04/M10 A3027 RMK AO2 SLP271 T10441100

KAHQ  (24.6 nm SW)   (most recent observation was updated at 10:02 UTC)
100235Z AUTO 00000KT 10SM BKN065 M08/M11 A3024 RMK AO2 T10811109

KBIE  (33.0 nm NW)   (most recent observation was updated at 10:02 UTC)
100235Z AUTO 28005KT 10SM BKN095 M05/M09 A3027 RMK AO2 T10501092

TAF for KLNK is not available.
KLNK
092328Z 1000/1024 28007KT P6SM BKN100 FM101100 14005KT P6SM OVC040 TEMPO 1012/1015 5SM BR OVC025 FM101900 27009KT P6SM OVC090

GlobalAir.com is loading additional information.
 Current Weather at LNK
26.0 F° (-3.3 C°)

West winds at 3.5 mph
Pressure:
30.28 in
Humidity:
60%
Wind:
West at 3.5 mph
Dew Point:
14.0 F° (-10.0 C°)
Visibility:
10.00 mi
LNK NOAA Radar




Find All Airport Services Find A Hotel Find A Rental Car Find A Golf Course Find A Restaurant $100 Hamburger



Airport Weather Forecast for KLNK

Translated METAR for KLNK (0154 UTC)
METAR:
KLNK 100154Z 28005KT 10SM CLR M04/M10 A3027 RMK AO2 SLP271 T10441100
Conditions at:
KLNK (Lincoln, NE) observed 0154 UTC 09 February 2016
Temperature:
-4°C (24.8°F)
Dewpoint:
-10°C (14°F) [RH = 63]
Pressure:
30.27 inches Hg (1025.1 mb)
pressure at sea level is 271 in Hg
Winds:
from the W (280 degrees) at 5.8 mph (5 knots: 2.6 m/s)
Visibility:
10 mile(s)
Ceiling:
at least 12,000 feet AGL
Clouds:
Clear below 12,000 feet AGL
Remarks:
site is automated and HAS a precipitation sensor

Translated TAF for KLNK (Lincoln, NE) (2328 UTC)
TAF text:
KLNK 092328Z 1000/1024 28007KT P6SM BKN100
Forecast period:
Wednesday Feb 10 2016 00:00 UTC - Wednesday Feb 10 2016 24:00 UTC
Forecast type:
FROM: standard forecast or significant change
Winds:
from the W (280 degrees) at 8.1 mph (7 knots: 3.6 m/s)
Visibility:
6 or more mile(s) (9.7+ km)
Ceiling:
10,000 feet AGL
Clouds:
Broken Cloud Cover at 10,000 feet AGL
Weather:
no significant weather observed at this time
TAF text:
FM101100 14005KT P6SM OVC040
Forecast period:
Wednesday Feb 10 2016 11:00 UTC - Wednesday Feb 10 2016 19:00 UTC
Forecast type:
FROM: standard forecast or significant change
Winds:
from the SE (140 degrees) at 5.8 mph (5 knots: 2.6 m/s)
Visibility:
6 or more mile(s) (9.7+ km)
Ceiling:
4,000 feet AGL
Clouds:
Overcast Skies at 4,000 feet AGL
Weather:
no significant weather observed at this time
TAF text:
1012/1015 5SM BR OVC025
Forecast period:
Thursday Feb 11 2016 12:00 UTC - Thursday Feb 11 2016 15:00 UTC
Forecast type:
FROM: standard forecast or significant change
Winds:
Visibility:
5 mile(s) (8 km)
Ceiling:
2,500 feet AGL
Clouds:
Overcast Skies at 2,500 feet AGL
Weather:
Moderate Mist
TAF text:
FM101900 27009KT P6SM OVC090
Forecast period:
Wednesday Feb 10 2016 19:00 UTC - Wednesday Feb 10 2016 24:00 UTC
Forecast type:
FROM: standard forecast or significant change
Winds:
from the W (270 degrees) at 10.4 mph (9 knots: 4.6 m/s)
Visibility:
6 or more mile(s) (9.7+ km)
Ceiling:
9,000 feet AGL
Clouds:
Overcast Skies at 9,000 feet AGL
Weather:
no significant weather observed at this time
FBO's on the Field
FBO Company Facility Photos Services Transportation Aviation Fuel Prices: Prices include tax
Catering Weather Repair Courtesy Rental Type 100LL JetA JetA+ MOGAS 8087
 
Duncan Aviation

This FBO has not yet been rated
FS:Avfuel
Last Updated: Feb-09
Login to update fuel prices
SS:
Contact Duncan AviationMore FBO Information
 
Silverhawk Aviation

This FBO has not yet been rated
FS:Phillips 66
Last Updated: Feb-09
Login to update fuel prices
SS:
Contact Silverhawk AviationMore FBO Information
 
Add another FBO Facility Photos Catering Weather Repair Courtesy Rental Type 100LL JetA JetA+ MOGAS 8087
Services Transportation Aviation Fuel Prices: Prices include tax


model-print
model-print
model-print
model-print